createdAt,value
2024-04-14T00:01:39.602Z,92364.28
2024-04-14T00:04:06.615Z,92365.63
2024-04-14T00:06:33.599Z,92366.34
2024-04-14T00:09:00.519Z,92368.53
2024-04-14T00:11:27.380Z,92364.75
2024-04-14T00:13:54.150Z,92360.16
2024-04-14T00:16:20.994Z,92356.94
2024-04-14T00:18:48.149Z,92349.59
2024-04-14T00:21:15.631Z,92355.63
2024-04-14T00:23:42.545Z,92365.78
2024-04-14T00:26:09.894Z,92364.69
2024-04-14T00:28:37.087Z,92369.31
2024-04-14T00:31:03.976Z,92363.56
2024-04-14T00:33:32.731Z,92360.34
2024-04-14T00:35:59.658Z,92367.75
2024-04-14T00:38:26.430Z,92369.28
2024-04-14T00:40:53.341Z,92361.41
2024-04-14T00:43:20.235Z,92362.63
2024-04-14T00:45:47.600Z,92361.13
2024-04-14T00:48:14.834Z,92356.44
2024-04-14T00:50:41.733Z,92359.47
2024-04-14T00:53:09.387Z,92360.47
2024-04-14T00:55:36.520Z,92348.94
2024-04-14T00:58:04.333Z,92355.22
2024-04-14T01:00:31.273Z,92351.06
2024-04-14T01:02:58.364Z,92360.50
2024-04-14T01:05:25.419Z,92352.03
2024-04-14T01:07:52.171Z,92347.63
2024-04-14T01:10:19.015Z,92346.81
2024-04-14T01:12:45.988Z,92350.41
2024-04-14T01:15:13.014Z,92341.59
2024-04-14T01:17:39.906Z,92345.91
2024-04-14T01:20:07.339Z,92344.66
2024-04-14T01:22:34.405Z,92346.00
2024-04-14T01:25:08.111Z,92344.53
2024-04-14T01:27:35.436Z,92344.03
2024-04-14T01:30:06.932Z,92345.09
2024-04-14T01:32:40.498Z,92352.94
2024-04-14T01:35:10.281Z,92346.59
2024-04-14T01:37:37.135Z,92347.72
2024-04-14T01:40:04.226Z,92350.91
2024-04-14T01:42:31.449Z,92351.94
2024-04-14T01:44:58.320Z,92348.34
2024-04-14T01:47:25.190Z,92358.00
2024-04-14T01:49:51.983Z,92359.84
2024-04-14T01:52:18.844Z,92366.13
2024-04-14T01:54:45.674Z,92358.25
2024-04-14T01:57:12.491Z,92355.88
2024-04-14T01:59:39.298Z,92354.03
2024-04-14T02:02:06.074Z,92356.91
2024-04-14T02:04:34.140Z,92357.25
2024-04-14T02:07:01.141Z,92356.19
2024-04-14T02:09:28.173Z,92349.91
2024-04-14T02:11:54.973Z,92352.28
2024-04-14T02:14:21.732Z,92368.72
2024-04-14T02:16:48.531Z,92360.06
2024-04-14T02:19:15.393Z,92357.34
2024-04-14T02:21:43.780Z,92363.22
2024-04-14T02:24:11.379Z,92364.03
2024-04-14T02:26:38.314Z,92371.34
2024-04-14T02:29:05.181Z,92367.94
2024-04-14T02:31:32.061Z,92370.00
2024-04-14T02:33:58.874Z,92362.72
2024-04-14T02:36:28.786Z,92363.50
2024-04-14T02:38:56.955Z,92365.06
2024-04-14T02:41:23.849Z,92363.78
2024-04-14T02:43:50.664Z,92361.16
2024-04-14T02:46:17.642Z,92357.25
2024-04-14T02:48:49.209Z,92361.94
2024-04-14T02:51:16.123Z,92369.22
2024-04-14T02:53:42.919Z,92358.56
2024-04-14T02:56:09.662Z,92355.41
2024-04-14T02:58:36.432Z,92363.75
2024-04-14T03:01:03.446Z,92352.13
2024-04-14T03:03:30.522Z,92352.94
2024-04-14T03:06:04.724Z,92348.19
2024-04-14T03:08:31.464Z,92355.84
2024-04-14T03:10:58.923Z,92355.00
2024-04-14T03:13:25.706Z,92350.84
2024-04-14T03:15:53.528Z,92356.66
2024-04-14T03:18:20.409Z,92359.03
2024-04-14T03:21:00.807Z,92353.50
2024-04-14T03:23:27.843Z,92358.78
2024-04-14T03:25:54.798Z,92361.44
2024-04-14T03:28:26.758Z,92359.59
2024-04-14T03:30:54.133Z,92359.59
2024-04-14T03:33:20.955Z,92360.84
2024-04-14T03:35:47.733Z,92363.97
2024-04-14T03:38:14.467Z,92365.56
2024-04-14T03:40:41.240Z,92371.03
2024-04-14T03:43:08.078Z,92366.59
2024-04-14T03:45:34.904Z,92369.50
2024-04-14T03:48:01.752Z,92364.00
2024-04-14T03:50:28.527Z,92367.91
2024-04-14T03:52:55.262Z,92375.19
2024-04-14T03:55:22.024Z,92372.31
2024-04-14T03:57:48.883Z,92383.84
2024-04-14T04:00:15.735Z,92382.56
2024-04-14T04:02:42.524Z,92391.69
2024-04-14T04:05:12.065Z,92393.72
2024-04-14T04:07:39.007Z,92387.09
2024-04-14T04:10:05.934Z,92394.63
2024-04-14T04:12:32.753Z,92388.06
2024-04-14T04:14:59.530Z,92383.13
2024-04-14T04:17:26.293Z,92381.91
2024-04-14T04:19:53.395Z,92376.22
2024-04-14T04:22:20.152Z,92379.66
2024-04-14T04:24:46.968Z,92375.50
2024-04-14T04:27:13.763Z,92376.03
2024-04-14T04:29:40.524Z,92376.00
2024-04-14T04:32:07.459Z,92374.19
2024-04-14T04:34:34.205Z,92377.59
2024-04-14T04:37:01.236Z,92377.94
2024-04-14T04:39:28.078Z,92375.16
2024-04-14T04:41:54.903Z,92374.53
2024-04-14T04:44:21.672Z,92377.16
2024-04-14T04:46:48.467Z,92378.16
2024-04-14T04:49:15.277Z,92373.72
2024-04-14T04:51:42.082Z,92371.22
2024-04-14T04:54:08.859Z,92377.53
2024-04-14T04:56:35.613Z,92384.91
2024-04-14T04:59:02.856Z,92381.25
2024-04-14T05:01:29.886Z,92388.84
2024-04-14T05:03:56.763Z,92387.03
2024-04-14T05:06:23.713Z,92406.88
2024-04-14T05:08:50.487Z,92394.34
2024-04-14T05:11:17.498Z,92404.25
2024-04-14T05:13:44.267Z,92399.03
2024-04-14T05:16:11.119Z,92404.75
2024-04-14T05:18:38.066Z,92394.00
2024-04-14T05:21:05.261Z,92399.44
2024-04-14T05:23:32.183Z,92395.47
2024-04-14T05:26:00.740Z,92392.63
2024-04-14T05:28:27.513Z,92394.19
2024-04-14T05:30:54.295Z,92395.97
2024-04-14T05:33:21.060Z,92390.63
2024-04-14T05:35:57.333Z,92394.50
2024-04-14T05:38:24.211Z,92393.84
2024-04-14T05:40:51.372Z,92398.03
2024-04-14T05:43:18.130Z,92393.75
2024-04-14T05:45:45.459Z,92398.41
2024-04-14T05:48:12.355Z,92399.66
2024-04-14T05:50:39.154Z,92392.31
2024-04-14T05:53:06.134Z,92393.13
2024-04-14T05:55:32.906Z,92395.09
2024-04-14T05:58:00.322Z,92397.16
2024-04-14T06:00:27.246Z,92385.97
2024-04-14T06:02:54.156Z,92385.75
2024-04-14T06:05:20.947Z,92384.31
2024-04-14T06:07:47.811Z,92385.97
2024-04-14T06:12:41.446Z,92387.94
2024-04-14T06:15:08.370Z,92382.31
2024-04-14T06:17:35.159Z,92396.25
2024-04-14T06:20:02.043Z,92384.56
2024-04-14T06:22:32.099Z,92392.47
2024-04-14T06:24:59.048Z,92392.84
2024-04-14T06:27:26.086Z,92396.19
2024-04-14T06:29:52.905Z,92394.41
2024-04-14T06:32:19.745Z,92389.59
2024-04-14T06:34:46.570Z,92389.13
2024-04-14T06:37:13.910Z,92390.78
2024-04-14T06:39:40.794Z,92379.97
2024-04-14T06:42:09.249Z,92386.09
2024-04-14T06:44:36.086Z,92385.50
2024-04-14T06:47:03.004Z,92387.66
2024-04-14T06:49:30.016Z,92393.22
2024-04-14T06:51:58.383Z,92390.25
2024-04-14T06:54:25.356Z,92387.59
2024-04-14T06:56:52.244Z,92386.81
2024-04-14T06:59:19.072Z,92380.97
2024-04-14T07:01:45.984Z,92382.41
2024-04-14T07:04:13.333Z,92380.69
2024-04-14T07:06:40.568Z,92391.94
2024-04-14T07:09:07.383Z,92380.09
2024-04-14T07:11:34.298Z,92382.13
2024-04-14T07:14:01.086Z,92377.88
2024-04-14T07:16:27.898Z,92376.94
2024-04-14T07:18:54.842Z,92382.97
2024-04-14T07:21:21.664Z,92383.47
2024-04-14T07:23:48.482Z,92381.84
2024-04-14T07:26:15.291Z,92378.09
2024-04-14T07:28:42.162Z,92383.38
2024-04-14T07:31:08.997Z,92370.38
2024-04-14T07:33:36.806Z,92370.69
2024-04-14T07:36:03.967Z,92367.88
2024-04-14T07:38:30.811Z,92368.88
2024-04-14T07:40:57.697Z,92371.44
2024-04-14T07:43:24.591Z,92379.34
2024-04-14T07:45:51.333Z,92376.59
2024-04-14T07:48:18.376Z,92373.13
2024-04-14T07:50:45.867Z,92374.91
2024-04-14T07:53:13.060Z,92369.69
2024-04-14T07:55:39.933Z,92372.72
2024-04-14T07:58:06.803Z,92369.88
2024-04-14T08:00:33.707Z,92368.78
2024-04-14T08:03:00.577Z,92363.63
2024-04-14T08:05:27.541Z,92361.00
2024-04-14T08:07:55.657Z,92354.88
2024-04-14T08:10:22.529Z,92358.78
2024-04-14T08:12:49.400Z,92354.41
2024-04-14T08:15:16.258Z,92351.41
2024-04-14T08:17:43.975Z,92355.72
2024-04-14T08:20:12.608Z,92349.69
2024-04-14T08:22:39.616Z,92344.72
2024-04-14T08:25:06.786Z,92346.56
2024-04-14T08:27:33.722Z,92344.75
2024-04-14T08:30:00.546Z,92341.50
2024-04-14T08:32:27.453Z,92335.31
2024-04-14T08:34:54.349Z,92341.28
2024-04-14T08:37:21.803Z,92338.53
2024-04-14T08:39:48.763Z,92335.72
2024-04-14T08:42:15.684Z,92331.34
2024-04-14T08:44:42.572Z,92334.44
2024-04-14T08:47:10.415Z,92326.22
2024-04-14T08:49:41.461Z,92327.31
2024-04-14T08:52:08.266Z,92328.84
2024-04-14T08:54:35.200Z,92320.94
2024-04-14T08:57:02.927Z,92324.00
2024-04-14T08:59:30.835Z,92328.25
2024-04-14T09:02:02.693Z,92320.81
2024-04-14T09:04:29.851Z,92316.84
2024-04-14T09:06:56.750Z,92312.97
2024-04-14T09:09:23.563Z,92313.38
2024-04-14T09:11:54.031Z,92308.47
2024-04-14T09:14:20.808Z,92301.31
2024-04-14T09:16:48.114Z,92311.28
2024-04-14T09:19:15.015Z,92302.84
2024-04-14T09:21:42.216Z,92306.19
2024-04-14T09:24:08.981Z,92306.19
2024-04-14T09:26:35.898Z,92301.00
2024-04-14T09:29:05.931Z,92308.25
2024-04-14T09:31:36.364Z,92300.78
2024-04-14T09:34:06.255Z,92286.56
2024-04-14T09:36:33.333Z,92293.50
2024-04-14T09:39:00.306Z,92297.88
2024-04-14T09:41:27.103Z,92290.22
2024-04-14T09:43:54.040Z,92288.44
2024-04-14T09:46:20.913Z,92290.50
2024-04-14T09:48:47.959Z,92287.72
2024-04-14T09:51:15.467Z,92286.53
2024-04-14T09:53:42.834Z,92269.69
2024-04-14T09:56:09.760Z,92276.22
2024-04-14T09:58:36.572Z,92264.78
2024-04-14T10:01:12.635Z,92272.88
2024-04-14T10:03:40.920Z,92263.19
2024-04-14T10:06:07.847Z,92269.78
2024-04-14T10:08:34.939Z,92266.06
2024-04-14T10:11:05.811Z,92258.50
2024-04-14T10:13:51.848Z,92259.38
2024-04-14T10:16:19.837Z,92256.34
2024-04-14T10:18:48.275Z,92254.81
2024-04-14T10:21:19.203Z,92245.53
2024-04-14T10:23:56.587Z,92250.19
2024-04-14T10:26:23.556Z,92248.56
2024-04-14T10:28:54.076Z,92243.94
2024-04-14T10:31:30.425Z,92242.50
2024-04-14T10:34:09.882Z,92241.31
2024-04-14T10:36:37.923Z,92231.59
2024-04-14T10:39:08.025Z,92231.34
2024-04-14T10:41:36.446Z,92231.00
2024-04-14T10:44:03.532Z,92230.59
2024-04-14T10:46:30.397Z,92225.56
2024-04-14T10:48:57.367Z,92220.91
2024-04-14T10:51:24.295Z,92213.56
2024-04-14T10:53:54.218Z,92217.59
2024-04-14T10:56:21.408Z,92222.38
2024-04-14T10:58:48.154Z,92221.28
2024-04-14T11:01:15.364Z,92217.13
2024-04-14T11:03:42.430Z,92213.25
2024-04-14T11:06:09.345Z,92214.00
2024-04-14T11:08:36.157Z,92214.78
2024-04-14T11:11:03.066Z,92214.81
2024-04-14T11:13:30.070Z,92212.13
2024-04-14T11:16:00.725Z,92214.81
2024-04-14T11:18:30.886Z,92213.59
2024-04-14T11:20:57.766Z,92207.28
2024-04-14T11:23:24.780Z,92206.06
2024-04-14T11:25:51.543Z,92205.00
2024-04-14T11:28:18.629Z,92204.22
2024-04-14T11:30:45.584Z,92216.88
2024-04-14T11:33:12.569Z,92200.69
2024-04-14T11:35:39.972Z,92195.13
2024-04-14T11:38:07.067Z,92197.19
2024-04-14T11:40:34.076Z,92195.22
2024-04-14T11:43:00.912Z,92180.97
2024-04-14T11:45:27.807Z,92182.56
2024-04-14T11:47:54.607Z,92182.81
2024-04-14T11:50:21.466Z,92180.97
2024-04-14T11:52:49.201Z,92182.47
2024-04-14T11:55:15.983Z,92160.41
2024-04-14T11:57:42.896Z,92166.72
2024-04-14T12:00:10.035Z,92161.66
2024-04-14T12:02:36.886Z,92160.25
2024-04-14T12:05:03.989Z,92152.28
2024-04-14T12:07:30.823Z,92156.88
2024-04-14T12:09:57.639Z,92141.06
2024-04-14T12:12:24.477Z,92143.97
2024-04-14T12:14:51.321Z,92128.63
2024-04-14T12:17:18.106Z,92129.31
2024-04-14T12:19:45.175Z,92128.47
2024-04-14T12:22:12.084Z,92118.81
2024-04-14T12:24:38.942Z,92115.97
2024-04-14T12:27:05.917Z,92106.22
2024-04-14T12:29:32.976Z,92099.66
2024-04-14T12:31:59.790Z,92103.28
2024-04-14T12:34:26.605Z,92101.75
2024-04-14T12:36:53.457Z,92102.56
2024-04-14T12:39:27.307Z,92097.56
2024-04-14T12:41:57.409Z,92086.44
2024-04-14T12:44:24.223Z,92088.81
2024-04-14T12:46:51.115Z,92090.25
2024-04-14T12:49:27.410Z,92081.88
2024-04-14T12:51:55.161Z,92073.41
2024-04-14T12:54:22.023Z,92073.66
2024-04-14T12:56:48.835Z,92078.44
2024-04-14T12:59:15.765Z,92069.03
2024-04-14T13:01:42.646Z,92065.66
2024-04-14T13:04:09.553Z,92068.53
2024-04-14T13:06:36.760Z,92076.50
2024-04-14T13:09:03.534Z,92068.22
2024-04-14T13:11:30.438Z,92061.44
2024-04-14T13:13:57.201Z,92059.88
2024-04-14T13:16:24.206Z,92054.34
2024-04-14T13:18:51.227Z,92050.47
2024-04-14T13:21:18.774Z,92051.28
2024-04-14T13:23:49.363Z,92050.81
2024-04-14T13:26:16.393Z,92047.56
2024-04-14T13:28:43.461Z,92050.59
2024-04-14T13:31:10.464Z,92046.91
2024-04-14T13:33:37.972Z,92040.59
2024-04-14T13:36:05.201Z,92034.31
2024-04-14T13:38:32.069Z,92029.53
2024-04-14T13:41:02.462Z,92041.03
2024-04-14T13:43:29.257Z,92038.94
2024-04-14T13:45:56.106Z,92033.56
2024-04-14T13:48:22.950Z,92033.50
2024-04-14T13:50:49.908Z,92031.97
2024-04-14T13:53:16.826Z,92031.97
2024-04-14T13:55:43.750Z,92037.41
2024-04-14T13:58:10.706Z,92026.91
2024-04-14T14:00:38.418Z,92028.56
2024-04-14T14:03:05.386Z,92032.34
2024-04-14T14:05:32.289Z,92029.06
2024-04-14T14:07:59.047Z,92026.31
2024-04-14T14:10:25.923Z,92028.28
2024-04-14T14:12:52.810Z,92028.06
2024-04-14T14:15:20.541Z,92031.47
2024-04-14T14:17:47.380Z,92033.41
2024-04-14T14:20:14.297Z,92030.66
2024-04-14T14:22:41.142Z,92022.72
2024-04-14T14:25:08.124Z,92027.00
2024-04-14T14:27:35.042Z,92020.91
2024-04-14T14:30:01.818Z,92016.03
2024-04-14T14:32:31.596Z,92016.25
2024-04-14T14:35:17.073Z,92020.22
2024-04-14T14:37:43.807Z,92019.09
2024-04-14T14:40:10.814Z,92020.13
2024-04-14T14:42:37.698Z,92007.38
2024-04-14T14:45:04.869Z,92009.03
2024-04-14T14:47:32.039Z,92012.59
2024-04-14T14:49:58.907Z,92016.16
2024-04-14T14:52:25.767Z,92003.28
2024-04-14T14:54:52.598Z,92004.59
2024-04-14T14:57:19.412Z,92010.41
2024-04-14T14:59:46.168Z,91999.50
2024-04-14T15:02:12.981Z,92007.28
2024-04-14T15:04:40.011Z,92008.06
2024-04-14T15:07:06.935Z,92007.66
2024-04-14T15:09:33.872Z,92007.78
2024-04-14T15:12:00.699Z,92011.31
2024-04-14T15:14:27.504Z,92002.19
2024-04-14T15:16:54.379Z,92006.25
2024-04-14T15:19:21.244Z,92006.28
2024-04-14T15:21:48.138Z,92005.78
2024-04-14T15:24:14.986Z,92009.94
2024-04-14T15:26:41.812Z,92007.06
2024-04-14T15:29:08.714Z,92000.03
2024-04-14T15:31:35.644Z,92000.13
2024-04-14T15:34:02.525Z,91993.25
2024-04-14T15:36:29.360Z,91991.75
2024-04-14T15:38:56.110Z,91999.41
2024-04-14T15:41:22.978Z,91996.47
2024-04-14T15:43:49.967Z,92003.47
2024-04-14T15:46:16.932Z,92005.34
2024-04-14T15:48:43.817Z,91997.78
2024-04-14T15:51:18.363Z,92002.00
2024-04-14T15:53:47.707Z,92009.41
2024-04-14T15:56:14.565Z,92010.97
2024-04-14T15:58:41.426Z,92003.25
2024-04-14T16:01:08.374Z,92008.41
2024-04-14T16:03:35.423Z,92010.72
2024-04-14T16:06:02.239Z,92013.44
2024-04-14T16:08:29.044Z,92009.72
2024-04-14T16:11:06.149Z,92008.53
2024-04-14T16:13:35.303Z,91999.75
2024-04-14T16:16:06.966Z,91998.22
2024-04-14T16:18:34.534Z,91999.94
2024-04-14T16:21:01.568Z,92004.69
2024-04-14T16:23:39.367Z,91998.88
2024-04-14T16:26:06.235Z,92009.31
2024-04-14T16:28:33.454Z,92006.69
2024-04-14T16:31:00.765Z,92006.34
2024-04-14T16:33:27.663Z,92010.22
2024-04-14T16:35:54.550Z,92007.88
2024-04-14T16:38:21.292Z,92003.28
2024-04-14T16:40:48.949Z,92008.63
2024-04-14T16:43:15.811Z,92013.25
2024-04-14T16:45:42.746Z,92004.63
2024-04-14T16:48:09.623Z,92007.13
2024-04-14T16:50:36.757Z,92003.38
2024-04-14T16:53:03.666Z,92015.34
2024-04-14T16:55:31.120Z,92017.81
2024-04-14T16:57:57.990Z,92016.84
2024-04-14T17:00:24.822Z,92006.75
2024-04-14T17:02:51.727Z,92016.09
2024-04-14T17:05:18.571Z,92023.44
2024-04-14T17:07:45.462Z,92025.50
2024-04-14T17:10:12.348Z,92022.25
2024-04-14T17:12:40.390Z,92023.16
2024-04-14T17:15:08.289Z,92018.19
2024-04-14T17:17:35.615Z,92021.56
2024-04-14T17:20:03.228Z,92024.16
2024-04-14T17:22:30.585Z,92030.09
2024-04-14T17:24:57.461Z,92025.50
2024-04-14T17:27:24.320Z,92027.50
2024-04-14T17:29:51.136Z,92037.09
2024-04-14T17:32:18.898Z,92034.63
2024-04-14T17:34:46.033Z,92042.34
2024-04-14T17:37:12.898Z,92045.50
2024-04-14T17:39:39.744Z,92049.44
2024-04-14T17:42:06.588Z,92044.38
2024-04-14T17:44:33.547Z,92057.09
2024-04-14T17:47:00.381Z,92056.84
2024-04-14T17:49:27.282Z,92066.56
2024-04-14T17:51:54.084Z,92074.50
2024-04-14T17:54:20.983Z,92068.19
2024-04-14T17:56:52.306Z,92075.25
2024-04-14T17:59:19.295Z,92075.28
2024-04-14T18:01:47.051Z,92084.16
2024-04-14T18:04:13.979Z,92081.16
2024-04-14T18:06:40.929Z,92087.91
2024-04-14T18:09:07.916Z,92088.22
2024-04-14T18:11:34.739Z,92086.13
2024-04-14T18:14:01.746Z,92087.69
2024-04-14T18:16:28.600Z,92093.66
2024-04-14T18:18:55.472Z,92099.75
2024-04-14T18:21:22.353Z,92104.06
2024-04-14T18:23:49.211Z,92102.81
2024-04-14T18:26:16.035Z,92111.47
2024-04-14T18:28:44.790Z,92104.97
2024-04-14T18:31:11.652Z,92104.03
2024-04-14T18:33:38.570Z,92103.16
2024-04-14T18:36:14.403Z,92104.72
2024-04-14T18:38:45.526Z,92107.69
2024-04-14T18:41:12.343Z,92108.28
2024-04-14T18:43:39.684Z,92117.53
2024-04-14T18:46:06.720Z,92118.63
2024-04-14T18:48:40.377Z,92121.66
2024-04-14T18:51:07.541Z,92123.22
2024-04-14T18:53:34.390Z,92119.19
2024-04-14T18:56:02.278Z,92116.88
2024-04-14T18:58:32.617Z,92123.63
2024-04-14T19:01:00.186Z,92113.59
2024-04-14T19:03:27.082Z,92116.34
2024-04-14T19:05:53.882Z,92119.84
2024-04-14T19:08:24.136Z,92117.84
2024-04-14T19:10:50.976Z,92119.44
2024-04-14T19:13:17.824Z,92113.75
2024-04-14T19:15:48.901Z,92123.41
2024-04-14T19:18:16.281Z,92126.72
2024-04-14T19:20:43.172Z,92121.81
2024-04-14T19:23:10.000Z,92126.47
2024-04-14T19:25:36.895Z,92124.13
2024-04-14T19:28:04.368Z,92127.84
2024-04-14T19:30:31.260Z,92129.75
2024-04-14T19:32:58.102Z,92125.28
2024-04-14T19:35:25.862Z,92130.22
2024-04-14T19:37:55.014Z,92127.41
2024-04-14T19:40:21.913Z,92129.72
2024-04-14T19:42:48.722Z,92123.22
2024-04-14T19:45:15.604Z,92117.06
2024-04-14T19:47:43.161Z,92122.06
2024-04-14T19:50:09.970Z,92113.97
2024-04-14T19:52:36.837Z,92120.03
2024-04-14T19:55:06.115Z,92118.94
2024-04-14T19:57:33.069Z,92117.78
2024-04-14T19:59:59.831Z,92119.16
2024-04-14T20:02:26.695Z,92119.00
2024-04-14T20:04:53.584Z,92121.75
2024-04-14T20:07:20.420Z,92115.22
2024-04-14T20:09:47.248Z,92119.13
2024-04-14T20:12:14.055Z,92119.16
2024-04-14T20:14:40.919Z,92123.03
2024-04-14T20:17:07.754Z,92125.84
2024-04-14T20:19:34.677Z,92116.50
2024-04-14T20:22:01.508Z,92107.81
2024-04-14T20:24:28.679Z,92120.88
2024-04-14T20:26:55.551Z,92112.00
2024-04-14T20:29:22.417Z,92116.41
2024-04-14T20:31:49.167Z,92109.59
2024-04-14T20:34:16.008Z,92110.34
2024-04-14T20:36:42.856Z,92114.84
2024-04-14T20:39:10.850Z,92106.84
2024-04-14T20:41:37.736Z,92110.19
2024-04-14T20:44:04.538Z,92108.91
2024-04-14T20:46:31.379Z,92103.19
2024-04-14T20:48:58.316Z,92102.84
2024-04-14T20:51:25.183Z,92101.06
2024-04-14T20:53:51.954Z,92105.06
2024-04-14T20:56:18.831Z,92103.03
2024-04-14T20:58:49.502Z,92099.63
2024-04-14T21:01:16.450Z,92100.13
2024-04-14T21:03:43.365Z,92098.56
2024-04-14T21:06:10.570Z,92091.19
2024-04-14T21:08:37.399Z,92094.72
2024-04-14T21:11:04.864Z,92091.94
2024-04-14T21:13:31.679Z,92089.25
2024-04-14T21:15:58.501Z,92089.25
2024-04-14T21:18:25.476Z,92082.91
2024-04-14T21:20:55.753Z,92089.34
2024-04-14T21:23:22.755Z,92090.28
2024-04-14T21:25:49.561Z,92080.72
2024-04-14T21:28:16.454Z,92086.88
2024-04-14T21:30:51.621Z,92081.44
2024-04-14T21:33:18.551Z,92088.47
2024-04-14T21:35:45.418Z,92084.97
2024-04-14T21:38:14.263Z,92088.94
2024-04-14T21:40:48.124Z,92092.75
2024-04-14T21:43:15.060Z,92082.81
2024-04-14T21:45:41.994Z,92082.81
2024-04-14T21:48:09.183Z,92077.66
2024-04-14T21:50:36.008Z,92080.88
2024-04-14T21:53:02.900Z,92084.56
2024-04-14T21:55:29.690Z,92079.78
2024-04-14T21:57:56.462Z,92077.84
2024-04-14T22:00:23.268Z,92074.72
2024-04-14T22:02:50.120Z,92078.81
2024-04-14T22:05:17.105Z,92074.50
2024-04-14T22:07:43.984Z,92081.78
2024-04-14T22:10:10.890Z,92082.50
2024-04-14T22:12:37.815Z,92079.69
2024-04-14T22:15:05.041Z,92076.06
2024-04-14T22:17:32.014Z,92077.63
2024-04-14T22:19:58.917Z,92081.94
2024-04-14T22:22:25.700Z,92082.03
2024-04-14T22:24:52.793Z,92083.56
2024-04-14T22:27:19.635Z,92082.03
2024-04-14T22:29:46.408Z,92075.66
2024-04-14T22:32:13.481Z,92073.41
2024-04-14T22:34:41.615Z,92077.84
2024-04-14T22:37:08.549Z,92075.91
2024-04-14T22:39:35.406Z,92073.81
2024-04-14T22:42:02.137Z,92073.91
2024-04-14T22:44:28.989Z,92070.66
2024-04-14T22:46:55.922Z,92071.00
2024-04-14T22:49:22.793Z,92064.25
2024-04-14T22:51:49.626Z,92071.47
2024-04-14T22:54:16.830Z,92067.34
2024-04-14T22:56:43.698Z,92063.16
2024-04-14T22:59:10.529Z,92072.84
2024-04-14T23:01:37.462Z,92058.66
2024-04-14T23:04:04.424Z,92060.41
2024-04-14T23:06:31.344Z,92062.63
2024-04-14T23:08:58.135Z,92056.88
2024-04-14T23:11:25.003Z,92052.25
2024-04-14T23:13:51.852Z,92062.06
2024-04-14T23:16:18.698Z,92051.41
2024-04-14T23:18:45.550Z,92053.72
2024-04-14T23:21:12.433Z,92047.16
2024-04-14T23:23:39.248Z,92055.94
2024-04-14T23:26:06.025Z,92044.63
2024-04-14T23:28:32.842Z,92045.75
2024-04-14T23:30:59.723Z,92045.88
2024-04-14T23:33:26.655Z,92032.72
2024-04-14T23:35:53.410Z,92032.28
2024-04-14T23:38:20.229Z,92043.34
2024-04-14T23:40:47.157Z,92032.06
2024-04-14T23:43:14.183Z,92031.50
2024-04-14T23:45:41.894Z,92031.75
2024-04-14T23:48:08.759Z,92038.00
2024-04-14T23:50:35.606Z,92032.66
2024-04-14T23:53:02.377Z,92034.50
2024-04-14T23:55:29.255Z,92035.28
2024-04-14T23:57:56.039Z,92028.53
